Aeroporto :
LOGIN :

Iscrizione | Disclaimer

   EN    FR    IT 

 










Sommario :    VFR   VFR Marginale   IFR   IFR Intensivo   IFR Molto Intensivo
Visibilità : 
Base nubi : 
>= 8 km
>= 3000ft
5 / 8 km
1000 / 3000 ft
1500m / 5 km
500 / 1000 ft
800 / 1500m
200 / 500 ft
< 800m
< 200 ft
Simboli :   Temporali  Nebbia  Neve Forte  Precipitazioni Forti  Vento > 20 kt
SIGMETs :   Varie  Temporali  Ghiacco  Turbolenza  Onda orograficha  Ceneri Vulcaniche






- Altitudine del aeroporto : 39 ft


ETNH - Hohn AB

ULTIMO METAR :
  • 130920Z 17008KT 9999 BKN015 04/01 Q0997 WHT WHT TEMPO YLO

METARs OBSOLETI :
  • 130820Z 15005KT 9999 BKN015 02/01 Q0998 WHT WHT TEMPO YLO
  • 130746Z 14006KT 9999 BKN015 02/00 Q0998 WHT WHT TEMPO YLO
  • 130720Z 14005KT 9999 FEW120 01/M00 Q0998 BLU+BLU TEMPO YLO

TAF TAF ETNH
Valido dal 13 a 06 ore il 13 a 18 ore UTC


130532Z 1306/1318 14010KT 9999 NSW SCT100 BKN180
TEMPO 1306/1308 13005KT 3000 BR BKN005
PROB30 1306/1308 13003KT 0500 FZFG VV001
BECMG 1308/1310 15010KT 9000 NSW BKN015
TEMPO 1308/1318 16012KT 4000 SHRA BKN005 BKN020TCU BY ETGL



MetMap, La meteo Aeronautica in un colpo d'occhio ! - Copyright ORBIFLY Dicembre 2007 - Disclaimer

ORBIFLY MET'MAP TEAM :

Programmazione e sviluppo : Alexandra Zaïnal
Concezione e sviluppo : Baudouin d'Aumeries
Co-Programmazione e sviluppo : Marc-Olivier Méhu
Supporto tecnico e logistico : Manuel Goepfert
Aiuto per la traduzione : Arnaldo La Scala

Contatto : metmap@orbifly.com




FONTI E CREDITI :

   NOAA